sensor_id;sensor_type;location;lat;lon;timestamp;temperature;humidity
64032;DHT22;50278;47.796;11.968;2023-05-07T00:01:23;10.94;118.99
64032;DHT22;50278;47.796;11.968;2023-05-07T00:03:48;10.94;118.99
64032;DHT22;50278;47.796;11.968;2023-05-07T00:06:14;10.95;118.99
64032;DHT22;50278;47.796;11.968;2023-05-07T00:08:40;10.94;118.99
64032;DHT22;50278;47.796;11.968;2023-05-07T00:11:05;10.88;118.99
64032;DHT22;50278;47.796;11.968;2023-05-07T00:13:31;10.86;118.99
64032;DHT22;50278;47.796;11.968;2023-05-07T00:16:04;10.81;118.99
64032;DHT22;50278;47.796;11.968;2023-05-07T00:18:29;10.81;118.99
64032;DHT22;50278;47.796;11.968;2023-05-07T00:20:55;10.79;118.99
64032;DHT22;50278;47.796;11.968;2023-05-07T00:23:22;10.78;118.99
64032;DHT22;50278;47.796;11.968;2023-05-07T00:25:47;10.79;118.99
64032;DHT22;50278;47.796;11.968;2023-05-07T00:28:13;10.73;118.99
64032;DHT22;50278;47.796;11.968;2023-05-07T00:30:38;10.65;118.99
64032;DHT22;50278;47.796;11.968;2023-05-07T00:33:04;10.64;118.99
64032;DHT22;50278;47.796;11.968;2023-05-07T00:35:29;10.63;118.99
64032;DHT22;50278;47.796;11.968;2023-05-07T00:37:55;10.57;118.99
64032;DHT22;50278;47.796;11.968;2023-05-07T00:40:21;10.58;118.99
64032;DHT22;50278;47.796;11.968;2023-05-07T00:42:46;10.54;118.99
64032;DHT22;50278;47.796;11.968;2023-05-07T00:45:15;10.58;118.99
64032;DHT22;50278;47.796;11.968;2023-05-07T00:47:42;10.57;118.99
64032;DHT22;50278;47.796;11.968;2023-05-07T00:50:08;10.60;118.99
64032;DHT22;50278;47.796;11.968;2023-05-07T00:52:37;10.60;118.99
64032;DHT22;50278;47.796;11.968;2023-05-07T00:55:05;10.63;118.99
64032;DHT22;50278;47.796;11.968;2023-05-07T00:57:39;10.62;118.99
64032;DHT22;50278;47.796;11.968;2023-05-07T01:00:07;10.63;118.99
64032;DHT22;50278;47.796;11.968;2023-05-07T01:02:36;10.60;118.99
64032;DHT22;50278;47.796;11.968;2023-05-07T01:05:03;10.60;118.99
64032;DHT22;50278;47.796;11.968;2023-05-07T01:07:31;10.63;118.99
64032;DHT22;50278;47.796;11.968;2023-05-07T01:09:58;10.66;118.99
64032;DHT22;50278;47.796;11.968;2023-05-07T01:12:24;10.69;118.99
64032;DHT22;50278;47.796;11.968;2023-05-07T01:14:51;10.75;118.99
64032;DHT22;50278;47.796;11.968;2023-05-07T01:17:17;10.77;118.99
64032;DHT22;50278;47.796;11.968;2023-05-07T01:19:44;10.78;118.99
64032;DHT22;50278;47.796;11.968;2023-05-07T01:22:10;10.79;118.99
64032;DHT22;50278;47.796;11.968;2023-05-07T01:24:46;10.78;118.99
64032;DHT22;50278;47.796;11.968;2023-05-07T01:27:14;10.80;118.99
64032;DHT22;50278;47.796;11.968;2023-05-07T01:29:39;10.80;118.99
64032;DHT22;50278;47.796;11.968;2023-05-07T01:32:05;10.75;118.99
64032;DHT22;50278;47.796;11.968;2023-05-07T01:34:33;10.71;118.99
64032;DHT22;50278;47.796;11.968;2023-05-07T01:37:00;10.69;118.99
64032;DHT22;50278;47.796;11.968;2023-05-07T01:39:26;10.58;118.99
64032;DHT22;50278;47.796;11.968;2023-05-07T01:41:57;10.58;118.99
64032;DHT22;50278;47.796;11.968;2023-05-07T01:44:24;10.54;118.99
64032;DHT22;50278;47.796;11.968;2023-05-07T01:46:51;10.50;118.99
64032;DHT22;50278;47.796;11.968;2023-05-07T01:49:17;10.46;118.99
64032;DHT22;50278;47.796;11.968;2023-05-07T01:51:43;10.43;118.99
64032;DHT22;50278;47.796;11.968;2023-05-07T01:54:09;10.41;118.99
64032;DHT22;50278;47.796;11.968;2023-05-07T01:56:35;10.40;118.99
64032;DHT22;50278;47.796;11.968;2023-05-07T01:59:02;10.40;118.99
64032;DHT22;50278;47.796;11.968;2023-05-07T02:01:28;10.40;118.99
64032;DHT22;50278;47.796;11.968;2023-05-07T02:03:54;10.38;118.99
64032;DHT22;50278;47.796;11.968;2023-05-07T02:06:23;10.33;118.99
64032;DHT22;50278;47.796;11.968;2023-05-07T02:08:51;10.39;118.99
64032;DHT22;50278;47.796;11.968;2023-05-07T02:11:17;10.43;118.99
64032;DHT22;50278;47.796;11.968;2023-05-07T02:13:42;10.42;118.99
64032;DHT22;50278;47.796;11.968;2023-05-07T02:16:08;10.39;118.99
64032;DHT22;50278;47.796;11.968;2023-05-07T02:18:33;10.43;118.99
64032;DHT22;50278;47.796;11.968;2023-05-07T02:20:59;10.39;118.99
64032;DHT22;50278;47.796;11.968;2023-05-07T02:23:25;10.31;118.99
64032;DHT22;50278;47.796;11.968;2023-05-07T02:25:51;10.35;118.99
64032;DHT22;50278;47.796;11.968;2023-05-07T02:28:17;10.30;118.99
64032;DHT22;50278;47.796;11.968;2023-05-07T02:30:49;10.27;118.99
64032;DHT22;50278;47.796;11.968;2023-05-07T02:33:15;10.25;118.99
64032;DHT22;50278;47.796;11.968;2023-05-07T02:35:41;10.25;118.99
64032;DHT22;50278;47.796;11.968;2023-05-07T02:38:06;10.27;118.99
64032;DHT22;50278;47.796;11.968;2023-05-07T02:40:33;10.24;118.99
64032;DHT22;50278;47.796;11.968;2023-05-07T02:42:59;10.21;118.99
64032;DHT22;50278;47.796;11.968;2023-05-07T02:45:25;10.20;118.99
64032;DHT22;50278;47.796;11.968;2023-05-07T02:47:52;10.19;118.99
64032;DHT22;50278;47.796;11.968;2023-05-07T02:50:19;10.15;118.99
64032;DHT22;50278;47.796;11.968;2023-05-07T02:52:44;10.16;118.99
64032;DHT22;50278;47.796;11.968;2023-05-07T02:55:10;10.21;118.99
64032;DHT22;50278;47.796;11.968;2023-05-07T02:57:36;10.21;118.99
64032;DHT22;50278;47.796;11.968;2023-05-07T03:02:41;10.30;118.99
64032;DHT22;50278;47.796;11.968;2023-05-07T03:05:07;10.34;118.99
64032;DHT22;50278;47.796;11.968;2023-05-07T03:07:34;10.27;118.99
64032;DHT22;50278;47.796;11.968;2023-05-07T03:10:00;10.23;118.99
64032;DHT22;50278;47.796;11.968;2023-05-07T03:12:25;10.15;118.99
64032;DHT22;50278;47.796;11.968;2023-05-07T03:14:51;10.13;118.99
64032;DHT22;50278;47.796;11.968;2023-05-07T03:17:16;10.13;118.99
64032;DHT22;50278;47.796;11.968;2023-05-07T03:19:42;10.09;118.99
64032;DHT22;50278;47.796;11.968;2023-05-07T03:22:08;10.10;118.99
64032;DHT22;50278;47.796;11.968;2023-05-07T03:24:33;10.03;118.99
64032;DHT22;50278;47.796;11.968;2023-05-07T03:26:59;10.01;118.99
64032;DHT22;50278;47.796;11.968;2023-05-07T03:29:26;9.99;118.99
64032;DHT22;50278;47.796;11.968;2023-05-07T03:31:52;9.98;118.99
64032;DHT22;50278;47.796;11.968;2023-05-07T03:34:18;9.99;118.99
64032;DHT22;50278;47.796;11.968;2023-05-07T03:36:51;9.94;118.99
64032;DHT22;50278;47.796;11.968;2023-05-07T03:39:18;9.98;118.99
64032;DHT22;50278;47.796;11.968;2023-05-07T03:41:43;9.95;118.99
64032;DHT22;50278;47.796;11.968;2023-05-07T03:44:09;9.90;118.99
64032;DHT22;50278;47.796;11.968;2023-05-07T03:46:35;9.89;118.99
64032;DHT22;50278;47.796;11.968;2023-05-07T03:49:00;9.91;118.99
64032;DHT22;50278;47.796;11.968;2023-05-07T03:51:26;9.90;118.99
64032;DHT22;50278;47.796;11.968;2023-05-07T03:53:52;9.85;118.99
64032;DHT22;50278;47.796;11.968;2023-05-07T03:56:20;9.85;118.99
64032;DHT22;50278;47.796;11.968;2023-05-07T03:58:49;9.86;118.99
64032;DHT22;50278;47.796;11.968;2023-05-07T04:01:14;9.85;118.99
64032;DHT22;50278;47.796;11.968;2023-05-07T04:03:40;9.91;118.99
64032;DHT22;50278;47.796;11.968;2023-05-07T04:06:06;9.82;118.99
64032;DHT22;50278;47.796;11.968;2023-05-07T04:08:33;9.78;118.99
64032;DHT22;50278;47.796;11.968;2023-05-07T04:10:59;9.79;118.99
64032;DHT22;50278;47.796;11.968;2023-05-07T04:13:29;9.77;118.99
64032;DHT22;50278;47.796;11.968;2023-05-07T04:15:56;9.78;118.99
64032;DHT22;50278;47.796;11.968;2023-05-07T04:18:23;9.76;118.99
64032;DHT22;50278;47.796;11.968;2023-05-07T04:20:49;9.76;118.99
64032;DHT22;50278;47.796;11.968;2023-05-07T04:23:15;9.77;118.99
64032;DHT22;50278;47.796;11.968;2023-05-07T04:25:41;9.68;118.99
64032;DHT22;50278;47.796;11.968;2023-05-07T04:28:14;9.70;118.99
64032;DHT22;50278;47.796;11.968;2023-05-07T04:30:41;9.64;118.99
64032;DHT22;50278;47.796;11.968;2023-05-07T04:33:07;9.69;118.99
64032;DHT22;50278;47.796;11.968;2023-05-07T04:35:33;9.70;118.99
64032;DHT22;50278;47.796;11.968;2023-05-07T04:37:59;9.71;118.99
64032;DHT22;50278;47.796;11.968;2023-05-07T04:40:25;9.80;118.99
64032;DHT22;50278;47.796;11.968;2023-05-07T04:42:51;9.86;118.99
64032;DHT22;50278;47.796;11.968;2023-05-07T04:45:16;9.96;118.99
64032;DHT22;50278;47.796;11.968;2023-05-07T04:47:44;9.97;118.99
64032;DHT22;50278;47.796;11.968;2023-05-07T04:50:10;9.96;118.99
64032;DHT22;50278;47.796;11.968;2023-05-07T04:52:37;10.00;118.99
64032;DHT22;50278;47.796;11.968;2023-05-07T04:55:03;10.04;118.99
64032;DHT22;50278;47.796;11.968;2023-05-07T04:57:34;10.09;118.99
64032;DHT22;50278;47.796;11.968;2023-05-07T05:00:00;10.21;118.99
64032;DHT22;50278;47.796;11.968;2023-05-07T05:02:25;10.33;118.99
64032;DHT22;50278;47.796;11.968;2023-05-07T05:04:51;10.44;118.99
64032;DHT22;50278;47.796;11.968;2023-05-07T05:07:17;10.56;118.99
64032;DHT22;50278;47.796;11.968;2023-05-07T05:09:42;10.70;118.99
64032;DHT22;50278;47.796;11.968;2023-05-07T05:12:08;10.85;118.99
64032;DHT22;50278;47.796;11.968;2023-05-07T05:14:35;10.99;118.99
64032;DHT22;50278;47.796;11.968;2023-05-07T05:17:01;11.13;118.99
64032;DHT22;50278;47.796;11.968;2023-05-07T05:19:26;11.26;118.99
64032;DHT22;50278;47.796;11.968;2023-05-07T05:21:52;11.43;118.99
64032;DHT22;50278;47.796;11.968;2023-05-07T05:24:17;11.57;118.99
64032;DHT22;50278;47.796;11.968;2023-05-07T05:26:43;11.71;118.99
64032;DHT22;50278;47.796;11.968;2023-05-07T05:29:09;11.85;118.99
64032;DHT22;50278;47.796;11.968;2023-05-07T05:31:38;11.98;118.99
64032;DHT22;50278;47.796;11.968;2023-05-07T05:34:04;12.07;118.99
64032;DHT22;50278;47.796;11.968;2023-05-07T05:36:30;12.20;118.99
64032;DHT22;50278;47.796;11.968;2023-05-07T05:38:57;12.34;118.99
64032;DHT22;50278;47.796;11.968;2023-05-07T05:41:22;12.43;118.99
64032;DHT22;50278;47.796;11.968;2023-05-07T05:43:49;12.51;118.99
64032;DHT22;50278;47.796;11.968;2023-05-07T05:46:15;12.47;118.99
64032;DHT22;50278;47.796;11.968;2023-05-07T05:48:41;12.64;118.99
64032;DHT22;50278;47.796;11.968;2023-05-07T05:51:07;12.67;118.99
64032;DHT22;50278;47.796;11.968;2023-05-07T05:53:33;12.72;118.99
64032;DHT22;50278;47.796;11.968;2023-05-07T05:55:58;12.74;118.99
64032;DHT22;50278;47.796;11.968;2023-05-07T05:58:24;12.75;118.99
64032;DHT22;50278;47.796;11.968;2023-05-07T06:00:56;12.86;118.99
64032;DHT22;50278;47.796;11.968;2023-05-07T06:03:24;13.01;118.99
64032;DHT22;50278;47.796;11.968;2023-05-07T06:05:50;13.07;118.99
64032;DHT22;50278;47.796;11.968;2023-05-07T06:08:17;13.14;118.99
64032;DHT22;50278;47.796;11.968;2023-05-07T06:10:43;13.24;118.99
64032;DHT22;50278;47.796;11.968;2023-05-07T06:13:20;13.30;118.99
64032;DHT22;50278;47.796;11.968;2023-05-07T06:15:59;13.26;118.99
64032;DHT22;50278;47.796;11.968;2023-05-07T06:18:29;13.37;118.99
64032;DHT22;50278;47.796;11.968;2023-05-07T06:20:55;13.41;118.99
64032;DHT22;50278;47.796;11.968;2023-05-07T06:23:26;13.52;118.99
64032;DHT22;50278;47.796;11.968;2023-05-07T06:25:52;13.61;118.99
64032;DHT22;50278;47.796;11.968;2023-05-07T06:28:21;13.84;118.99
64032;DHT22;50278;47.796;11.968;2023-05-07T06:30:47;14.04;118.99
64032;DHT22;50278;47.796;11.968;2023-05-07T06:33:14;14.13;118.99
64032;DHT22;50278;47.796;11.968;2023-05-07T06:35:40;14.14;118.99
64032;DHT22;50278;47.796;11.968;2023-05-07T06:38:06;14.20;118.99
64032;DHT22;50278;47.796;11.968;2023-05-07T06:40:32;14.35;118.99
64032;DHT22;50278;47.796;11.968;2023-05-07T06:42:59;14.52;118.99
64032;DHT22;50278;47.796;11.968;2023-05-07T06:45:35;14.57;118.99
64032;DHT22;50278;47.796;11.968;2023-05-07T06:48:01;14.60;118.99
64032;DHT22;50278;47.796;11.968;2023-05-07T06:50:30;14.77;118.99
64032;DHT22;50278;47.796;11.968;2023-05-07T06:52:57;14.91;118.99
64032;DHT22;50278;47.796;11.968;2023-05-07T06:55:22;14.94;118.99
64032;DHT22;50278;47.796;11.968;2023-05-07T06:57:48;15.11;118.99
64032;DHT22;50278;47.796;11.968;2023-05-07T07:00:14;15.06;118.99
64032;DHT22;50278;47.796;11.968;2023-05-07T07:02:47;15.26;118.99
64032;DHT22;50278;47.796;11.968;2023-05-07T07:05:14;15.44;118.99
64032;DHT22;50278;47.796;11.968;2023-05-07T07:07:40;15.36;118.99
64032;DHT22;50278;47.796;11.968;2023-05-07T07:10:06;15.42;118.99
64032;DHT22;50278;47.796;11.968;2023-05-07T07:12:33;15.52;118.99
64032;DHT22;50278;47.796;11.968;2023-05-07T07:14:59;15.62;118.99
64032;DHT22;50278;47.796;11.968;2023-05-07T07:17:25;15.66;118.99
64032;DHT22;50278;47.796;11.968;2023-05-07T07:19:51;15.84;118.99
64032;DHT22;50278;47.796;11.968;2023-05-07T07:22:17;16.05;118.99
64032;DHT22;50278;47.796;11.968;2023-05-07T07:24:42;16.04;118.99
64032;DHT22;50278;47.796;11.968;2023-05-07T07:27:10;16.21;118.99
64032;DHT22;50278;47.796;11.968;2023-05-07T07:29:35;16.24;118.99
64032;DHT22;50278;47.796;11.968;2023-05-07T07:32:01;16.39;118.99
64032;DHT22;50278;47.796;11.968;2023-05-07T07:34:27;16.46;118.99
64032;DHT22;50278;47.796;11.968;2023-05-07T07:36:53;16.52;118.99
64032;DHT22;50278;47.796;11.968;2023-05-07T07:39:19;16.71;118.99
64032;DHT22;50278;47.796;11.968;2023-05-07T07:41:47;16.95;118.99
64032;DHT22;50278;47.796;11.968;2023-05-07T07:44:13;16.94;118.99
64032;DHT22;50278;47.796;11.968;2023-05-07T07:46:40;17.01;118.99
64032;DHT22;50278;47.796;11.968;2023-05-07T07:49:06;17.03;118.99
64032;DHT22;50278;47.796;11.968;2023-05-07T07:51:32;17.19;118.99
64032;DHT22;50278;47.796;11.968;2023-05-07T07:53:58;17.28;118.99
64032;DHT22;50278;47.796;11.968;2023-05-07T07:56:24;17.47;118.99
64032;DHT22;50278;47.796;11.968;2023-05-07T07:58:51;17.37;118.99
64032;DHT22;50278;47.796;11.968;2023-05-07T08:01:17;17.36;118.99
64032;DHT22;50278;47.796;11.968;2023-05-07T08:03:44;17.62;118.99
64032;DHT22;50278;47.796;11.968;2023-05-07T08:06:11;17.81;118.99
64032;DHT22;50278;47.796;11.968;2023-05-07T08:08:37;17.77;118.99
64032;DHT22;50278;47.796;11.968;2023-05-07T08:11:03;17.96;118.99
64032;DHT22;50278;47.796;11.968;2023-05-07T08:13:31;17.87;118.99
64032;DHT22;50278;47.796;11.968;2023-05-07T08:15:57;18.17;118.99
64032;DHT22;50278;47.796;11.968;2023-05-07T08:18:23;18.46;118.99
64032;DHT22;50278;47.796;11.968;2023-05-07T08:20:50;18.53;118.99
64032;DHT22;50278;47.796;11.968;2023-05-07T08:23:20;18.65;118.99
64032;DHT22;50278;47.796;11.968;2023-05-07T08:25:47;18.79;118.99
64032;DHT22;50278;47.796;11.968;2023-05-07T08:28:14;18.86;118.99
64032;DHT22;50278;47.796;11.968;2023-05-07T08:30:40;19.01;118.99
64032;DHT22;50278;47.796;11.968;2023-05-07T08:33:08;19.24;118.99
64032;DHT22;50278;47.796;11.968;2023-05-07T08:35:33;19.21;118.99
64032;DHT22;50278;47.796;11.968;2023-05-07T08:37:59;19.48;118.99
64032;DHT22;50278;47.796;11.968;2023-05-07T08:40:26;19.68;118.99
64032;DHT22;50278;47.796;11.968;2023-05-07T08:42:53;19.57;118.99
64032;DHT22;50278;47.796;11.968;2023-05-07T08:45:20;19.33;118.99
64032;DHT22;50278;47.796;11.968;2023-05-07T08:47:59;19.65;118.99
64032;DHT22;50278;47.796;11.968;2023-05-07T08:50:29;20.04;118.99
64032;DHT22;50278;47.796;11.968;2023-05-07T08:52:56;19.98;118.99
64032;DHT22;50278;47.796;11.968;2023-05-07T08:55:23;20.09;118.99
64032;DHT22;50278;47.796;11.968;2023-05-07T08:57:49;20.34;118.99
64032;DHT22;50278;47.796;11.968;2023-05-07T09:00:16;20.41;118.99
64032;DHT22;50278;47.796;11.968;2023-05-07T09:02:47;20.42;118.99
64032;DHT22;50278;47.796;11.968;2023-05-07T09:05:13;20.50;118.99
64032;DHT22;50278;47.796;11.968;2023-05-07T09:07:39;20.60;118.99
64032;DHT22;50278;47.796;11.968;2023-05-07T09:10:06;20.78;118.99
64032;DHT22;50278;47.796;11.968;2023-05-07T09:12:34;21.04;118.99
64032;DHT22;50278;47.796;11.968;2023-05-07T09:15:02;20.90;118.99
64032;DHT22;50278;47.796;11.968;2023-05-07T09:17:29;20.91;118.99
64032;DHT22;50278;47.796;11.968;2023-05-07T09:19:55;20.80;118.99
64032;DHT22;50278;47.796;11.968;2023-05-07T09:22:20;21.03;118.99
64032;DHT22;50278;47.796;11.968;2023-05-07T09:24:56;21.29;118.99
64032;DHT22;50278;47.796;11.968;2023-05-07T09:27:25;21.20;118.99
64032;DHT22;50278;47.796;11.968;2023-05-07T09:29:52;21.29;118.99
64032;DHT22;50278;47.796;11.968;2023-05-07T09:32:17;21.49;118.99
64032;DHT22;50278;47.796;11.968;2023-05-07T09:34:43;21.51;118.99
64032;DHT22;50278;47.796;11.968;2023-05-07T09:37:12;21.60;118.99
64032;DHT22;50278;47.796;11.968;2023-05-07T09:39:49;21.64;118.99
64032;DHT22;50278;47.796;11.968;2023-05-07T09:42:23;21.73;118.99
64032;DHT22;50278;47.796;11.968;2023-05-07T09:44:51;21.77;118.99
64032;DHT22;50278;47.796;11.968;2023-05-07T09:47:24;22.10;118.99
64032;DHT22;50278;47.796;11.968;2023-05-07T09:49:56;22.08;118.99
64032;DHT22;50278;47.796;11.968;2023-05-07T09:52:26;22.37;118.99
64032;DHT22;50278;47.796;11.968;2023-05-07T09:54:57;22.57;118.99
64032;DHT22;50278;47.796;11.968;2023-05-07T09:57:27;22.32;118.99
64032;DHT22;50278;47.796;11.968;2023-05-07T09:59:58;22.62;118.99
64032;DHT22;50278;47.796;11.968;2023-05-07T10:02:29;22.90;118.99
64032;DHT22;50278;47.796;11.968;2023-05-07T10:04:56;22.73;118.99
64032;DHT22;50278;47.796;11.968;2023-05-07T10:07:28;23.14;116.18
64032;DHT22;50278;47.796;11.968;2023-05-07T10:09:59;23.44;115.32
64032;DHT22;50278;47.796;11.968;2023-05-07T10:12:33;23.54;115.28
64032;DHT22;50278;47.796;11.968;2023-05-07T10:15:10;24.04;107.66
64032;DHT22;50278;47.796;11.968;2023-05-07T10:17:38;23.83;115.71
64032;DHT22;50278;47.796;11.968;2023-05-07T10:20:05;24.38;107.48
64032;DHT22;50278;47.796;11.968;2023-05-07T10:22:37;24.34;104.50
64032;DHT22;50278;47.796;11.968;2023-05-07T10:25:06;24.16;103.43
64032;DHT22;50278;47.796;11.968;2023-05-07T10:27:35;23.96;101.32
64032;DHT22;50278;47.796;11.968;2023-05-07T10:32:53;24.43;100.61
64032;DHT22;50278;47.796;11.968;2023-05-07T10:35:29;24.72;102.59
64032;DHT22;50278;47.796;11.968;2023-05-07T10:37:58;25.27;94.19
64032;DHT22;50278;47.796;11.968;2023-05-07T10:40:26;25.18;98.75
64032;DHT22;50278;47.796;11.968;2023-05-07T10:42:57;24.89;100.07
64032;DHT22;50278;47.796;11.968;2023-05-07T10:45:24;25.51;93.46
64032;DHT22;50278;47.796;11.968;2023-05-07T10:48:14;25.53;88.69
64032;DHT22;50278;47.796;11.968;2023-05-07T10:50:43;25.56;83.65
64032;DHT22;50278;47.796;11.968;2023-05-07T10:58:47;25.32;87.66
64032;DHT22;50278;47.796;11.968;2023-05-07T11:02:01;25.48;83.85
64032;DHT22;50278;47.796;11.968;2023-05-07T11:05:18;25.97;82.46
64032;DHT22;50278;47.796;11.968;2023-05-07T11:07:54;25.59;76.41
64032;DHT22;50278;47.796;11.968;2023-05-07T11:10:21;25.95;78.15
64032;DHT22;50278;47.796;11.968;2023-05-07T11:13:09;26.61;76.79
64032;DHT22;50278;47.796;11.968;2023-05-07T11:15:45;26.34;72.91
64032;DHT22;50278;47.796;11.968;2023-05-07T11:18:24;25.99;75.20
64032;DHT22;50278;47.796;11.968;2023-05-07T11:21:11;25.42;77.01
64032;DHT22;50278;47.796;11.968;2023-05-07T11:26:27;25.12;76.71
64032;DHT22;50278;47.796;11.968;2023-05-07T11:28:53;25.37;77.93
64032;DHT22;50278;47.796;11.968;2023-05-07T11:31:22;25.06;75.49
64032;DHT22;50278;47.796;11.968;2023-05-07T11:33:49;25.16;72.99
64032;DHT22;50278;47.796;11.968;2023-05-07T11:36:19;26.04;70.14
64032;DHT22;50278;47.796;11.968;2023-05-07T11:38:47;26.27;72.88
64032;DHT22;50278;47.796;11.968;2023-05-07T11:41:12;25.95;72.19
64032;DHT22;50278;47.796;11.968;2023-05-07T11:43:53;25.80;70.09
64032;DHT22;50278;47.796;11.968;2023-05-07T11:46:20;26.40;69.47
64032;DHT22;50278;47.796;11.968;2023-05-07T11:48:45;27.10;69.42
64032;DHT22;50278;47.796;11.968;2023-05-07T11:51:11;27.23;65.56
64032;DHT22;50278;47.796;11.968;2023-05-07T11:53:41;26.53;67.59
64032;DHT22;50278;47.796;11.968;2023-05-07T11:56:13;26.18;69.36
64032;DHT22;50278;47.796;11.968;2023-05-07T11:58:41;26.11;70.67
64032;DHT22;50278;47.796;11.968;2023-05-07T12:01:10;26.70;69.16
64032;DHT22;50278;47.796;11.968;2023-05-07T12:03:37;27.58;64.39
64032;DHT22;50278;47.796;11.968;2023-05-07T12:06:05;28.61;58.03
64032;DHT22;50278;47.796;11.968;2023-05-07T12:08:32;28.50;60.24
64032;DHT22;50278;47.796;11.968;2023-05-07T12:10:57;27.78;59.16
64032;DHT22;50278;47.796;11.968;2023-05-07T12:13:24;27.86;60.76
64032;DHT22;50278;47.796;11.968;2023-05-07T12:15:56;28.27;63.48
64032;DHT22;50278;47.796;11.968;2023-05-07T12:18:22;26.89;61.20
64032;DHT22;50278;47.796;11.968;2023-05-07T12:20:48;27.26;60.57
64032;DHT22;50278;47.796;11.968;2023-05-07T12:23:15;28.41;57.83
64032;DHT22;50278;47.796;11.968;2023-05-07T12:25:42;28.77;59.83
64032;DHT22;50278;47.796;11.968;2023-05-07T12:28:18;29.75;53.61
64032;DHT22;50278;47.796;11.968;2023-05-07T12:30:44;29.22;55.87
64032;DHT22;50278;47.796;11.968;2023-05-07T12:33:10;29.65;53.71
64032;DHT22;50278;47.796;11.968;2023-05-07T12:35:40;28.21;57.87
64032;DHT22;50278;47.796;11.968;2023-05-07T12:38:17;27.83;58.76
64032;DHT22;50278;47.796;11.968;2023-05-07T12:40:49;27.19;60.49
64032;DHT22;50278;47.796;11.968;2023-05-07T12:43:25;26.40;60.88
64032;DHT22;50278;47.796;11.968;2023-05-07T12:45:54;26.84;60.88
64032;DHT22;50278;47.796;11.968;2023-05-07T12:48:20;28.14;59.34
64032;DHT22;50278;47.796;11.968;2023-05-07T12:50:50;28.97;56.36
64032;DHT22;50278;47.796;11.968;2023-05-07T12:53:16;29.71;53.19
64032;DHT22;50278;47.796;11.968;2023-05-07T12:55:49;29.11;51.80
64032;DHT22;50278;47.796;11.968;2023-05-07T12:58:36;30.46;51.85
64032;DHT22;50278;47.796;11.968;2023-05-07T13:01:05;30.33;50.07
64032;DHT22;50278;47.796;11.968;2023-05-07T13:03:33;30.02;50.64
64032;DHT22;50278;47.796;11.968;2023-05-07T13:06:00;29.36;49.67
64032;DHT22;50278;47.796;11.968;2023-05-07T13:08:46;28.11;54.45
64032;DHT22;50278;47.796;11.968;2023-05-07T13:11:12;28.59;51.91
64032;DHT22;50278;47.796;11.968;2023-05-07T13:13:41;26.93;56.09
64032;DHT22;50278;47.796;11.968;2023-05-07T13:16:09;26.49;55.85
64032;DHT22;50278;47.796;11.968;2023-05-07T13:18:36;26.70;56.10
64032;DHT22;50278;47.796;11.968;2023-05-07T13:21:02;26.41;56.64
64032;DHT22;50278;47.796;11.968;2023-05-07T13:23:28;25.64;59.90
64032;DHT22;50278;47.796;11.968;2023-05-07T13:25:54;25.99;59.20
64032;DHT22;50278;47.796;11.968;2023-05-07T13:28:21;25.60;59.86
64032;DHT22;50278;47.796;11.968;2023-05-07T13:30:50;25.98;61.96
64032;DHT22;50278;47.796;11.968;2023-05-07T13:33:19;25.33;61.61
64032;DHT22;50278;47.796;11.968;2023-05-07T13:35:45;25.63;61.49
64032;DHT22;50278;47.796;11.968;2023-05-07T13:38:11;25.24;62.21
64032;DHT22;50278;47.796;11.968;2023-05-07T13:40:36;25.30;62.10
64032;DHT22;50278;47.796;11.968;2023-05-07T13:43:02;25.79;60.76
64032;DHT22;50278;47.796;11.968;2023-05-07T13:45:30;25.56;60.32
64032;DHT22;50278;47.796;11.968;2023-05-07T13:47:56;25.99;61.03
64032;DHT22;50278;47.796;11.968;2023-05-07T13:50:22;26.12;59.54
64032;DHT22;50278;47.796;11.968;2023-05-07T13:52:48;26.07;58.08
64032;DHT22;50278;47.796;11.968;2023-05-07T13:55:20;25.79;60.47
64032;DHT22;50278;47.796;11.968;2023-05-07T13:57:46;25.72;62.53
64032;DHT22;50278;47.796;11.968;2023-05-07T14:00:13;25.43;61.96
64032;DHT22;50278;47.796;11.968;2023-05-07T14:02:41;24.92;63.90
64032;DHT22;50278;47.796;11.968;2023-05-07T14:05:07;24.93;62.56
64032;DHT22;50278;47.796;11.968;2023-05-07T14:07:34;24.65;63.04
64032;DHT22;50278;47.796;11.968;2023-05-07T14:09:59;24.59;64.52
64032;DHT22;50278;47.796;11.968;2023-05-07T14:12:27;24.36;64.98
64032;DHT22;50278;47.796;11.968;2023-05-07T14:14:55;24.43;66.41
64032;DHT22;50278;47.796;11.968;2023-05-07T14:17:21;24.25;67.78
64032;DHT22;50278;47.796;11.968;2023-05-07T14:19:48;24.11;69.94
64032;DHT22;50278;47.796;11.968;2023-05-07T14:22:14;23.85;70.66
64032;DHT22;50278;47.796;11.968;2023-05-07T14:24:40;23.87;72.28
64032;DHT22;50278;47.796;11.968;2023-05-07T14:27:06;23.55;71.17
64032;DHT22;50278;47.796;11.968;2023-05-07T14:29:32;23.53;71.57
64032;DHT22;50278;47.796;11.968;2023-05-07T14:31:57;23.55;72.16
64032;DHT22;50278;47.796;11.968;2023-05-07T14:34:23;23.51;73.52
64032;DHT22;50278;47.796;11.968;2023-05-07T14:36:50;23.49;74.09
64032;DHT22;50278;47.796;11.968;2023-05-07T14:39:20;23.47;74.96
64032;DHT22;50278;47.796;11.968;2023-05-07T14:41:45;23.44;74.58
64032;DHT22;50278;47.796;11.968;2023-05-07T14:44:11;23.24;75.75
64032;DHT22;50278;47.796;11.968;2023-05-07T14:46:36;23.09;75.32
64032;DHT22;50278;47.796;11.968;2023-05-07T14:49:02;23.07;76.74
64032;DHT22;50278;47.796;11.968;2023-05-07T14:51:28;22.95;79.12
64032;DHT22;50278;47.796;11.968;2023-05-07T14:53:54;22.83;77.97
64032;DHT22;50278;47.796;11.968;2023-05-07T14:56:20;22.60;80.35
64032;DHT22;50278;47.796;11.968;2023-05-07T14:58:47;22.41;80.13
64032;DHT22;50278;47.796;11.968;2023-05-07T15:01:13;22.32;82.02
64032;DHT22;50278;47.796;11.968;2023-05-07T15:03:39;22.18;80.83
64032;DHT22;50278;47.796;11.968;2023-05-07T15:06:05;22.19;82.20
64032;DHT22;50278;47.796;11.968;2023-05-07T15:08:30;22.07;81.39
64032;DHT22;50278;47.796;11.968;2023-05-07T15:10:56;22.18;82.81
64032;DHT22;50278;47.796;11.968;2023-05-07T15:13:21;21.99;83.85
64032;DHT22;50278;47.796;11.968;2023-05-07T15:15:47;21.84;84.60
64032;DHT22;50278;47.796;11.968;2023-05-07T15:18:13;21.84;84.17
64032;DHT22;50278;47.796;11.968;2023-05-07T15:20:40;21.82;82.09
64032;DHT22;50278;47.796;11.968;2023-05-07T15:23:07;21.53;82.97
64032;DHT22;50278;47.796;11.968;2023-05-07T15:25:36;21.42;85.14